< < Back
Terminal Aerodrome Forecast


Current Version              Previous Versions:   1  2  3  4  5  6  7  8  9  

Terminal Aerodrome Forecast

259
FTUS44 KMRX 292328
TAFTYS
TAF
KTYS 292328Z 3000/3024 35003KT P6SM SKC
     FM301500 01005KT P6SM FEW050=

Latest METAR

748
SAUS80 KWBC 300300
MTRTYS
METAR KTYS 300253Z 04004KT 10SM FEW050 18/12 A3009 RMK AO2 SLP180
T01780117 51012


USA.gov is the U.S. government's official web portal to all federal, state and local government web resources and services.